sensor_id;sensor_type;location;lat;lon;timestamp;P1;durP1;ratioP1;P2;durP2;ratioP2
26319;SDS011;14024;52.226;5.200;2023-02-28T00:00:08;5.95;;;2.67;;
26319;SDS011;14024;52.226;5.200;2023-02-28T00:02:44;6.53;;;3.05;;
26319;SDS011;14024;52.226;5.200;2023-02-28T00:05:11;6.68;;;2.90;;
26319;SDS011;14024;52.226;5.200;2023-02-28T00:07:38;10.13;;;2.88;;
26319;SDS011;14024;52.226;5.200;2023-02-28T00:10:05;8.60;;;4.30;;
26319;SDS011;14024;52.226;5.200;2023-02-28T00:12:32;6.15;;;2.90;;
26319;SDS011;14024;52.226;5.200;2023-02-28T00:14:58;7.20;;;3.10;;
26319;SDS011;14024;52.226;5.200;2023-02-28T00:17:24;9.35;;;3.00;;
26319;SDS011;14024;52.226;5.200;2023-02-28T00:19:50;4.75;;;2.80;;
26319;SDS011;14024;52.226;5.200;2023-02-28T00:22:18;8.90;;;2.75;;
26319;SDS011;14024;52.226;5.200;2023-02-28T00:24:44;5.50;;;2.60;;
26319;SDS011;14024;52.226;5.200;2023-02-28T00:27:10;7.53;;;3.05;;
26319;SDS011;14024;52.226;5.200;2023-02-28T00:29:36;7.22;;;3.25;;
26319;SDS011;14024;52.226;5.200;2023-02-28T00:32:03;6.65;;;2.90;;
26319;SDS011;14024;52.226;5.200;2023-02-28T00:34:29;6.00;;;2.67;;
26319;SDS011;14024;52.226;5.200;2023-02-28T00:36:55;8.27;;;2.67;;
26319;SDS011;14024;52.226;5.200;2023-02-28T00:39:21;5.00;;;2.78;;
26319;SDS011;14024;52.226;5.200;2023-02-28T00:41:47;4.97;;;2.92;;
26319;SDS011;14024;52.226;5.200;2023-02-28T00:44:13;5.32;;;2.63;;
26319;SDS011;14024;52.226;5.200;2023-02-28T00:46:39;10.48;;;3.00;;
26319;SDS011;14024;52.226;5.200;2023-02-28T00:49:05;6.28;;;3.17;;
26319;SDS011;14024;52.226;5.200;2023-02-28T00:51:31;5.90;;;2.70;;
26319;SDS011;14024;52.226;5.200;2023-02-28T00:53:57;5.13;;;2.70;;
26319;SDS011;14024;52.226;5.200;2023-02-28T00:56:23;6.13;;;2.78;;
26319;SDS011;14024;52.226;5.200;2023-02-28T00:58:49;7.60;;;2.70;;
26319;SDS011;14024;52.226;5.200;2023-02-28T01:01:15;8.23;;;3.10;;
26319;SDS011;14024;52.226;5.200;2023-02-28T01:03:41;4.15;;;2.63;;
26319;SDS011;14024;52.226;5.200;2023-02-28T01:06:07;4.43;;;2.60;;
26319;SDS011;14024;52.226;5.200;2023-02-28T01:08:33;5.72;;;2.58;;
26319;SDS011;14024;52.226;5.200;2023-02-28T01:11:06;5.90;;;2.88;;
26319;SDS011;14024;52.226;5.200;2023-02-28T01:13:32;5.85;;;2.85;;
26319;SDS011;14024;52.226;5.200;2023-02-28T01:16:00;4.68;;;2.78;;
26319;SDS011;14024;52.226;5.200;2023-02-28T01:18:26;6.47;;;2.70;;
26319;SDS011;14024;52.226;5.200;2023-02-28T01:20:52;6.88;;;2.53;;
26319;SDS011;14024;52.226;5.200;2023-02-28T01:23:19;6.32;;;2.83;;
26319;SDS011;14024;52.226;5.200;2023-02-28T01:25:46;14.50;;;3.58;;
26319;SDS011;14024;52.226;5.200;2023-02-28T01:28:13;4.70;;;2.28;;
26319;SDS011;14024;52.226;5.200;2023-02-28T01:30:39;7.45;;;3.13;;
26319;SDS011;14024;52.226;5.200;2023-02-28T01:33:05;6.00;;;2.60;;
26319;SDS011;14024;52.226;5.200;2023-02-28T01:35:33;5.72;;;3.22;;
26319;SDS011;14024;52.226;5.200;2023-02-28T01:37:59;7.75;;;3.20;;
26319;SDS011;14024;52.226;5.200;2023-02-28T01:40:25;9.25;;;3.25;;
26319;SDS011;14024;52.226;5.200;2023-02-28T01:42:51;6.43;;;3.08;;
26319;SDS011;14024;52.226;5.200;2023-02-28T01:45:22;6.65;;;3.30;;
26319;SDS011;14024;52.226;5.200;2023-02-28T01:47:49;7.68;;;3.10;;
26319;SDS011;14024;52.226;5.200;2023-02-28T01:50:20;8.18;;;2.67;;
26319;SDS011;14024;52.226;5.200;2023-02-28T01:52:47;6.72;;;2.92;;
26319;SDS011;14024;52.226;5.200;2023-02-28T01:55:13;17.13;;;3.28;;
26319;SDS011;14024;52.226;5.200;2023-02-28T01:57:48;9.30;;;3.10;;
26319;SDS011;14024;52.226;5.200;2023-02-28T02:00:16;5.32;;;2.83;;
26319;SDS011;14024;52.226;5.200;2023-02-28T02:02:45;4.85;;;2.75;;
26319;SDS011;14024;52.226;5.200;2023-02-28T02:05:14;8.57;;;4.03;;
26319;SDS011;14024;52.226;5.200;2023-02-28T02:07:41;5.07;;;2.80;;
26319;SDS011;14024;52.226;5.200;2023-02-28T02:21:25;8.95;;;4.18;;
26319;SDS011;14024;52.226;5.200;2023-02-28T02:31:32;5.78;;;3.15;;
26319;SDS011;14024;52.226;5.200;2023-02-28T02:34:24;4.00;;;2.33;;
26319;SDS011;14024;52.226;5.200;2023-02-28T02:41:58;7.00;;;2.88;;
26319;SDS011;14024;52.226;5.200;2023-02-28T02:44:30;5.78;;;2.90;;
26319;SDS011;14024;52.226;5.200;2023-02-28T02:47:05;5.38;;;2.83;;
26319;SDS011;14024;52.226;5.200;2023-02-28T02:49:32;11.65;;;3.60;;
26319;SDS011;14024;52.226;5.200;2023-02-28T02:52:03;10.77;;;3.78;;
26319;SDS011;14024;52.226;5.200;2023-02-28T02:54:37;7.13;;;3.20;;
26319;SDS011;14024;52.226;5.200;2023-02-28T02:57:05;7.22;;;2.90;;
26319;SDS011;14024;52.226;5.200;2023-02-28T02:59:33;6.82;;;3.20;;
26319;SDS011;14024;52.226;5.200;2023-02-28T03:02:02;11.35;;;3.33;;
26319;SDS011;14024;52.226;5.200;2023-02-28T03:04:34;9.65;;;3.38;;
26319;SDS011;14024;52.226;5.200;2023-02-28T03:07:02;12.07;;;3.95;;
26319;SDS011;14024;52.226;5.200;2023-02-28T03:09:28;8.90;;;3.83;;
26319;SDS011;14024;52.226;5.200;2023-02-28T03:11:54;8.70;;;3.60;;
26319;SDS011;14024;52.226;5.200;2023-02-28T03:19:51;11.05;;;4.15;;
26319;SDS011;14024;52.226;5.200;2023-02-28T03:24:54;10.13;;;4.35;;
26319;SDS011;14024;52.226;5.200;2023-02-28T03:27:29;10.20;;;4.53;;
26319;SDS011;14024;52.226;5.200;2023-02-28T03:30:03;10.23;;;4.15;;
26319;SDS011;14024;52.226;5.200;2023-02-28T03:32:34;9.60;;;4.05;;
26319;SDS011;14024;52.226;5.200;2023-02-28T03:35:03;11.57;;;4.90;;
26319;SDS011;14024;52.226;5.200;2023-02-28T03:37:31;11.52;;;5.18;;
26319;SDS011;14024;52.226;5.200;2023-02-28T03:40:34;11.23;;;4.22;;
26319;SDS011;14024;52.226;5.200;2023-02-28T03:42:54;12.15;;;5.45;;
26319;SDS011;14024;52.226;5.200;2023-02-28T03:45:24;9.93;;;4.40;;
26319;SDS011;14024;52.226;5.200;2023-02-28T03:47:56;9.57;;;4.43;;
26319;SDS011;14024;52.226;5.200;2023-02-28T03:50:24;12.75;;;4.05;;
26319;SDS011;14024;52.226;5.200;2023-02-28T03:52:58;13.38;;;4.82;;
26319;SDS011;14024;52.226;5.200;2023-02-28T03:55:30;10.45;;;4.80;;
26319;SDS011;14024;52.226;5.200;2023-02-28T03:58:01;8.38;;;4.53;;
26319;SDS011;14024;52.226;5.200;2023-02-28T04:00:31;9.60;;;4.65;;
26319;SDS011;14024;52.226;5.200;2023-02-28T04:02:58;8.48;;;4.45;;
26319;SDS011;14024;52.226;5.200;2023-02-28T04:05:24;14.80;;;4.85;;
26319;SDS011;14024;52.226;5.200;2023-02-28T04:07:51;12.68;;;5.22;;
26319;SDS011;14024;52.226;5.200;2023-02-28T04:10:17;10.55;;;4.95;;
26319;SDS011;14024;52.226;5.200;2023-02-28T04:12:44;12.18;;;5.40;;
26319;SDS011;14024;52.226;5.200;2023-02-28T04:15:10;9.82;;;5.32;;
26319;SDS011;14024;52.226;5.200;2023-02-28T04:17:37;17.67;;;5.57;;
26319;SDS011;14024;52.226;5.200;2023-02-28T04:20:03;17.42;;;5.78;;
26319;SDS011;14024;52.226;5.200;2023-02-28T04:22:34;13.73;;;5.93;;
26319;SDS011;14024;52.226;5.200;2023-02-28T04:25:00;12.63;;;5.60;;
26319;SDS011;14024;52.226;5.200;2023-02-28T04:27:26;16.48;;;5.68;;
26319;SDS011;14024;52.226;5.200;2023-02-28T04:29:51;9.00;;;5.90;;
26319;SDS011;14024;52.226;5.200;2023-02-28T04:32:17;11.55;;;5.65;;
26319;SDS011;14024;52.226;5.200;2023-02-28T04:34:43;13.75;;;5.47;;
26319;SDS011;14024;52.226;5.200;2023-02-28T04:37:09;12.20;;;5.80;;
26319;SDS011;14024;52.226;5.200;2023-02-28T04:39:36;11.45;;;6.15;;
26319;SDS011;14024;52.226;5.200;2023-02-28T04:42:03;15.48;;;6.70;;
26319;SDS011;14024;52.226;5.200;2023-02-28T04:44:30;10.95;;;5.70;;
26319;SDS011;14024;52.226;5.200;2023-02-28T04:46:56;15.10;;;6.35;;
26319;SDS011;14024;52.226;5.200;2023-02-28T04:49:22;23.30;;;9.10;;
26319;SDS011;14024;52.226;5.200;2023-02-28T04:51:48;13.15;;;7.03;;
26319;SDS011;14024;52.226;5.200;2023-02-28T04:54:15;19.00;;;7.72;;
26319;SDS011;14024;52.226;5.200;2023-02-28T04:56:43;20.60;;;7.63;;
26319;SDS011;14024;52.226;5.200;2023-02-28T04:59:09;19.95;;;8.60;;
26319;SDS011;14024;52.226;5.200;2023-02-28T05:01:36;16.98;;;8.45;;
26319;SDS011;14024;52.226;5.200;2023-02-28T05:04:02;17.80;;;8.40;;
26319;SDS011;14024;52.226;5.200;2023-02-28T05:06:29;19.98;;;8.65;;
26319;SDS011;14024;52.226;5.200;2023-02-28T05:08:56;16.58;;;8.10;;
26319;SDS011;14024;52.226;5.200;2023-02-28T05:13:51;16.77;;;7.95;;
26319;SDS011;14024;52.226;5.200;2023-02-28T05:16:19;18.75;;;7.93;;
26319;SDS011;14024;52.226;5.200;2023-02-28T05:18:45;18.92;;;7.95;;
26319;SDS011;14024;52.226;5.200;2023-02-28T05:23:50;12.80;;;7.07;;
26319;SDS011;14024;52.226;5.200;2023-02-28T05:26:16;13.57;;;6.57;;
26319;SDS011;14024;52.226;5.200;2023-02-28T05:28:41;10.88;;;5.65;;
26319;SDS011;14024;52.226;5.200;2023-02-28T05:31:10;11.00;;;5.30;;
26319;SDS011;14024;52.226;5.200;2023-02-28T05:33:36;10.88;;;5.88;;
26319;SDS011;14024;52.226;5.200;2023-02-28T05:36:03;8.88;;;5.13;;
26319;SDS011;14024;52.226;5.200;2023-02-28T05:38:29;9.65;;;4.63;;
26319;SDS011;14024;52.226;5.200;2023-02-28T05:40:56;8.27;;;4.53;;
26319;SDS011;14024;52.226;5.200;2023-02-28T05:43:22;9.68;;;4.60;;
26319;SDS011;14024;52.226;5.200;2023-02-28T05:45:49;10.30;;;4.60;;
26319;SDS011;14024;52.226;5.200;2023-02-28T05:48:15;11.02;;;4.75;;
26319;SDS011;14024;52.226;5.200;2023-02-28T05:50:42;11.05;;;4.60;;
26319;SDS011;14024;52.226;5.200;2023-02-28T05:53:09;7.40;;;4.20;;
26319;SDS011;14024;52.226;5.200;2023-02-28T05:55:35;8.05;;;4.32;;
26319;SDS011;14024;52.226;5.200;2023-02-28T05:58:02;8.45;;;4.43;;
26319;SDS011;14024;52.226;5.200;2023-02-28T06:00:28;7.70;;;4.22;;
26319;SDS011;14024;52.226;5.200;2023-02-28T06:02:54;5.03;;;3.67;;
26319;SDS011;14024;52.226;5.200;2023-02-28T06:05:23;6.50;;;3.67;;
26319;SDS011;14024;52.226;5.200;2023-02-28T06:07:49;8.93;;;4.97;;
26319;SDS011;14024;52.226;5.200;2023-02-28T06:10:15;6.45;;;4.13;;
26319;SDS011;14024;52.226;5.200;2023-02-28T06:12:41;8.50;;;4.22;;
26319;SDS011;14024;52.226;5.200;2023-02-28T06:15:11;9.18;;;4.72;;
26319;SDS011;14024;52.226;5.200;2023-02-28T06:17:37;14.25;;;5.22;;
26319;SDS011;14024;52.226;5.200;2023-02-28T06:20:04;8.98;;;4.60;;
26319;SDS011;14024;52.226;5.200;2023-02-28T06:22:30;9.18;;;4.70;;
26319;SDS011;14024;52.226;5.200;2023-02-28T06:24:57;10.55;;;4.72;;
26319;SDS011;14024;52.226;5.200;2023-02-28T06:27:24;9.18;;;4.90;;
26319;SDS011;14024;52.226;5.200;2023-02-28T06:29:53;10.52;;;5.15;;
26319;SDS011;14024;52.226;5.200;2023-02-28T06:32:19;11.18;;;5.00;;
26319;SDS011;14024;52.226;5.200;2023-02-28T06:34:45;9.55;;;5.72;;
26319;SDS011;14024;52.226;5.200;2023-02-28T06:37:11;12.57;;;6.25;;
26319;SDS011;14024;52.226;5.200;2023-02-28T06:39:37;13.50;;;5.00;;
26319;SDS011;14024;52.226;5.200;2023-02-28T06:42:04;10.15;;;5.40;;
26319;SDS011;14024;52.226;5.200;2023-02-28T06:44:30;9.52;;;5.15;;
26319;SDS011;14024;52.226;5.200;2023-02-28T06:47:00;7.70;;;5.25;;
26319;SDS011;14024;52.226;5.200;2023-02-28T06:49:28;9.77;;;5.53;;
26319;SDS011;14024;52.226;5.200;2023-02-28T06:51:54;9.00;;;5.65;;
26319;SDS011;14024;52.226;5.200;2023-02-28T06:54:20;8.98;;;5.80;;
26319;SDS011;14024;52.226;5.200;2023-02-28T06:56:46;10.57;;;5.70;;
26319;SDS011;14024;52.226;5.200;2023-02-28T06:59:12;9.05;;;5.43;;
26319;SDS011;14024;52.226;5.200;2023-02-28T07:01:39;17.92;;;5.40;;
26319;SDS011;14024;52.226;5.200;2023-02-28T07:04:05;9.38;;;5.75;;
26319;SDS011;14024;52.226;5.200;2023-02-28T07:06:32;10.93;;;5.70;;
26319;SDS011;14024;52.226;5.200;2023-02-28T07:08:58;8.88;;;5.93;;
26319;SDS011;14024;52.226;5.200;2023-02-28T07:11:25;14.45;;;6.57;;
26319;SDS011;14024;52.226;5.200;2023-02-28T07:13:52;10.18;;;6.03;;
26319;SDS011;14024;52.226;5.200;2023-02-28T07:16:18;13.05;;;6.70;;
26319;SDS011;14024;52.226;5.200;2023-02-28T07:18:44;15.75;;;6.55;;
26319;SDS011;14024;52.226;5.200;2023-02-28T07:21:11;13.25;;;6.78;;
26319;SDS011;14024;52.226;5.200;2023-02-28T07:23:38;13.73;;;7.30;;
26319;SDS011;14024;52.226;5.200;2023-02-28T07:26:10;10.15;;;6.57;;
26319;SDS011;14024;52.226;5.200;2023-02-28T07:28:39;12.50;;;7.05;;
26319;SDS011;14024;52.226;5.200;2023-02-28T07:31:05;11.45;;;7.00;;
26319;SDS011;14024;52.226;5.200;2023-02-28T07:33:32;12.30;;;6.55;;
26319;SDS011;14024;52.226;5.200;2023-02-28T07:36:03;12.18;;;6.82;;
26319;SDS011;14024;52.226;5.200;2023-02-28T07:38:29;14.40;;;7.32;;
26319;SDS011;14024;52.226;5.200;2023-02-28T07:40:55;16.00;;;8.00;;
26319;SDS011;14024;52.226;5.200;2023-02-28T07:43:21;14.27;;;8.02;;
26319;SDS011;14024;52.226;5.200;2023-02-28T07:45:48;16.25;;;7.65;;
26319;SDS011;14024;52.226;5.200;2023-02-28T07:48:14;13.23;;;7.75;;
26319;SDS011;14024;52.226;5.200;2023-02-28T07:50:40;16.00;;;8.05;;
26319;SDS011;14024;52.226;5.200;2023-02-28T07:53:07;13.32;;;7.68;;
26319;SDS011;14024;52.226;5.200;2023-02-28T07:55:33;24.58;;;7.47;;
26319;SDS011;14024;52.226;5.200;2023-02-28T07:57:59;19.83;;;8.65;;
26319;SDS011;14024;52.226;5.200;2023-02-28T08:00:25;18.95;;;8.80;;
26319;SDS011;14024;52.226;5.200;2023-02-28T08:02:51;14.73;;;8.25;;
26319;SDS011;14024;52.226;5.200;2023-02-28T08:05:17;14.13;;;7.85;;
26319;SDS011;14024;52.226;5.200;2023-02-28T08:07:43;13.63;;;7.95;;
26319;SDS011;14024;52.226;5.200;2023-02-28T08:10:09;17.00;;;8.10;;
26319;SDS011;14024;52.226;5.200;2023-02-28T08:12:35;15.07;;;7.65;;
26319;SDS011;14024;52.226;5.200;2023-02-28T08:15:01;10.57;;;6.63;;
26319;SDS011;14024;52.226;5.200;2023-02-28T08:17:28;16.20;;;7.90;;
26319;SDS011;14024;52.226;5.200;2023-02-28T08:19:54;17.70;;;7.60;;
26319;SDS011;14024;52.226;5.200;2023-02-28T08:22:20;18.98;;;7.70;;
26319;SDS011;14024;52.226;5.200;2023-02-28T08:24:46;12.82;;;7.15;;
26319;SDS011;14024;52.226;5.200;2023-02-28T08:27:12;13.98;;;8.32;;
26319;SDS011;14024;52.226;5.200;2023-02-28T08:29:39;14.73;;;7.55;;
26319;SDS011;14024;52.226;5.200;2023-02-28T08:32:06;14.82;;;7.82;;
26319;SDS011;14024;52.226;5.200;2023-02-28T08:34:32;14.90;;;7.45;;
26319;SDS011;14024;52.226;5.200;2023-02-28T08:36:58;14.10;;;7.55;;
26319;SDS011;14024;52.226;5.200;2023-02-28T08:39:24;16.17;;;7.63;;
26319;SDS011;14024;52.226;5.200;2023-02-28T08:41:50;13.45;;;7.97;;
26319;SDS011;14024;52.226;5.200;2023-02-28T08:44:16;14.30;;;6.93;;
26319;SDS011;14024;52.226;5.200;2023-02-28T08:46:42;14.63;;;6.93;;
26319;SDS011;14024;52.226;5.200;2023-02-28T08:49:09;12.07;;;6.60;;
26319;SDS011;14024;52.226;5.200;2023-02-28T08:51:36;11.10;;;7.10;;
26319;SDS011;14024;52.226;5.200;2023-02-28T08:54:02;16.50;;;7.32;;
26319;SDS011;14024;52.226;5.200;2023-02-28T08:56:28;12.10;;;7.18;;
26319;SDS011;14024;52.226;5.200;2023-02-28T08:58:55;15.15;;;7.95;;
26319;SDS011;14024;52.226;5.200;2023-02-28T09:01:23;13.82;;;7.50;;
26319;SDS011;14024;52.226;5.200;2023-02-28T09:03:51;12.35;;;7.63;;
26319;SDS011;14024;52.226;5.200;2023-02-28T09:06:18;14.23;;;7.28;;
26319;SDS011;14024;52.226;5.200;2023-02-28T09:08:44;14.38;;;7.60;;
26319;SDS011;14024;52.226;5.200;2023-02-28T09:11:11;14.70;;;7.40;;
26319;SDS011;14024;52.226;5.200;2023-02-28T09:13:37;15.98;;;6.80;;
26319;SDS011;14024;52.226;5.200;2023-02-28T09:16:04;11.98;;;6.40;;
26319;SDS011;14024;52.226;5.200;2023-02-28T09:18:30;15.52;;;6.68;;
26319;SDS011;14024;52.226;5.200;2023-02-28T09:20:56;12.20;;;6.47;;
26319;SDS011;14024;52.226;5.200;2023-02-28T09:23:22;13.30;;;6.35;;
26319;SDS011;14024;52.226;5.200;2023-02-28T09:25:49;12.25;;;6.05;;
26319;SDS011;14024;52.226;5.200;2023-02-28T09:28:16;11.10;;;5.93;;
26319;SDS011;14024;52.226;5.200;2023-02-28T09:30:44;13.65;;;6.53;;
26319;SDS011;14024;52.226;5.200;2023-02-28T09:33:10;10.52;;;6.47;;
26319;SDS011;14024;52.226;5.200;2023-02-28T09:35:36;11.18;;;6.47;;
26319;SDS011;14024;52.226;5.200;2023-02-28T09:38:02;9.88;;;5.68;;
26319;SDS011;14024;52.226;5.200;2023-02-28T09:40:28;10.45;;;5.72;;
26319;SDS011;14024;52.226;5.200;2023-02-28T09:42:55;12.20;;;5.43;;
26319;SDS011;14024;52.226;5.200;2023-02-28T09:45:33;10.45;;;5.80;;
26319;SDS011;14024;52.226;5.200;2023-02-28T09:48:01;10.45;;;5.57;;
26319;SDS011;14024;52.226;5.200;2023-02-28T09:50:30;10.23;;;5.75;;
26319;SDS011;14024;52.226;5.200;2023-02-28T09:52:59;8.95;;;4.90;;
26319;SDS011;14024;52.226;5.200;2023-02-28T09:55:29;10.57;;;5.82;;
26319;SDS011;14024;52.226;5.200;2023-02-28T09:57:56;11.98;;;5.22;;
26319;SDS011;14024;52.226;5.200;2023-02-28T10:00:28;11.13;;;5.90;;
26319;SDS011;14024;52.226;5.200;2023-02-28T10:06:25;9.75;;;5.50;;
26319;SDS011;14024;52.226;5.200;2023-02-28T10:08:31;11.13;;;5.70;;
26319;SDS011;14024;52.226;5.200;2023-02-28T10:11:02;8.23;;;5.43;;
26319;SDS011;14024;52.226;5.200;2023-02-28T10:15:58;8.55;;;5.05;;
26319;SDS011;14024;52.226;5.200;2023-02-28T10:18:27;10.82;;;5.43;;
26319;SDS011;14024;52.226;5.200;2023-02-28T10:20:55;8.88;;;5.20;;
26319;SDS011;14024;52.226;5.200;2023-02-28T10:23:42;9.43;;;4.60;;
26319;SDS011;14024;52.226;5.200;2023-02-28T10:26:13;9.25;;;5.18;;
26319;SDS011;14024;52.226;5.200;2023-02-28T10:28:41;7.60;;;4.85;;
26319;SDS011;14024;52.226;5.200;2023-02-28T10:31:08;8.23;;;5.00;;
26319;SDS011;14024;52.226;5.200;2023-02-28T10:33:37;6.80;;;4.63;;
26319;SDS011;14024;52.226;5.200;2023-02-28T10:36:03;8.57;;;4.50;;
26319;SDS011;14024;52.226;5.200;2023-02-28T10:41:14;6.47;;;4.00;;
26319;SDS011;14024;52.226;5.200;2023-02-28T10:43:41;8.90;;;3.90;;
26319;SDS011;14024;52.226;5.200;2023-02-28T10:51:14;6.22;;;3.22;;
26319;SDS011;14024;52.226;5.200;2023-02-28T10:53:51;8.45;;;3.03;;
26319;SDS011;14024;52.226;5.200;2023-02-28T10:56:18;5.30;;;4.20;;
26319;SDS011;14024;52.226;5.200;2023-02-28T11:01:13;4.35;;;2.88;;
26319;SDS011;14024;52.226;5.200;2023-02-28T11:03:40;5.18;;;3.10;;
26319;SDS011;14024;52.226;5.200;2023-02-28T11:06:07;5.78;;;3.10;;
26319;SDS011;14024;52.226;5.200;2023-02-28T11:08:33;4.10;;;2.90;;
26319;SDS011;14024;52.226;5.200;2023-02-28T11:11:00;4.80;;;3.30;;
26319;SDS011;14024;52.226;5.200;2023-02-28T11:13:31;7.00;;;3.53;;
26319;SDS011;14024;52.226;5.200;2023-02-28T11:15:59;4.80;;;3.20;;
26319;SDS011;14024;52.226;5.200;2023-02-28T11:21:15;6.10;;;3.30;;
26319;SDS011;14024;52.226;5.200;2023-02-28T11:23:42;8.38;;;3.15;;
26319;SDS011;14024;52.226;5.200;2023-02-28T11:26:08;8.70;;;3.75;;
26319;SDS011;14024;52.226;5.200;2023-02-28T11:28:37;6.47;;;3.22;;
26319;SDS011;14024;52.226;5.200;2023-02-28T11:36:11;5.13;;;3.50;;
26319;SDS011;14024;52.226;5.200;2023-02-28T11:38:38;12.18;;;3.50;;
26319;SDS011;14024;52.226;5.200;2023-02-28T11:41:22;6.38;;;3.55;;
26319;SDS011;14024;52.226;5.200;2023-02-28T11:44:00;4.97;;;3.40;;
26319;SDS011;14024;52.226;5.200;2023-02-28T11:46:40;4.18;;;3.25;;
26319;SDS011;14024;52.226;5.200;2023-02-28T11:56:47;5.55;;;3.50;;
26319;SDS011;14024;52.226;5.200;2023-02-28T12:01:59;4.60;;;3.03;;
26319;SDS011;14024;52.226;5.200;2023-02-28T12:04:38;5.90;;;4.00;;
26319;SDS011;14024;52.226;5.200;2023-02-28T12:15:00;5.05;;;3.75;;
26319;SDS011;14024;52.226;5.200;2023-02-28T12:27:44;4.38;;;2.95;;
26319;SDS011;14024;52.226;5.200;2023-02-28T12:32:39;3.92;;;2.60;;
26319;SDS011;14024;52.226;5.200;2023-02-28T12:37:47;4.38;;;3.22;;
26319;SDS011;14024;52.226;5.200;2023-02-28T12:40:17;5.50;;;3.15;;
26319;SDS011;14024;52.226;5.200;2023-02-28T12:42:45;5.70;;;2.95;;
26319;SDS011;14024;52.226;5.200;2023-02-28T12:47:48;5.10;;;3.30;;
26319;SDS011;14024;52.226;5.200;2023-02-28T12:50:16;6.25;;;3.05;;
26319;SDS011;14024;52.226;5.200;2023-02-28T12:55:44;9.35;;;2.92;;
26319;SDS011;14024;52.226;5.200;2023-02-28T12:58:19;5.85;;;2.95;;
26319;SDS011;14024;52.226;5.200;2023-02-28T13:01:35;4.30;;;3.03;;
26319;SDS011;14024;52.226;5.200;2023-02-28T13:06:23;5.03;;;3.25;;
26319;SDS011;14024;52.226;5.200;2023-02-28T13:09:01;4.03;;;2.97;;
26319;SDS011;14024;52.226;5.200;2023-02-28T13:14:01;10.85;;;3.10;;
26319;SDS011;14024;52.226;5.200;2023-02-28T13:16:27;4.70;;;2.65;;
26319;SDS011;14024;52.226;5.200;2023-02-28T13:19:07;5.88;;;3.10;;
26319;SDS011;14024;52.226;5.200;2023-02-28T13:21:40;7.32;;;3.45;;
26319;SDS011;14024;52.226;5.200;2023-02-28T13:24:07;6.03;;;2.97;;
26319;SDS011;14024;52.226;5.200;2023-02-28T13:27:11;4.18;;;2.75;;
26319;SDS011;14024;52.226;5.200;2023-02-28T13:34:37;6.90;;;2.88;;
26319;SDS011;14024;52.226;5.200;2023-02-28T13:39:47;3.40;;;2.80;;
26319;SDS011;14024;52.226;5.200;2023-02-28T13:47:51;7.55;;;3.47;;
26319;SDS011;14024;52.226;5.200;2023-02-28T13:50:32;6.70;;;3.03;;
26319;SDS011;14024;52.226;5.200;2023-02-28T14:06:23;4.82;;;3.00;;
26319;SDS011;14024;52.226;5.200;2023-02-28T14:11:24;8.80;;;2.70;;
26319;SDS011;14024;52.226;5.200;2023-02-28T14:13:51;4.55;;;2.75;;
26319;SDS011;14024;52.226;5.200;2023-02-28T14:16:20;5.80;;;2.88;;
26319;SDS011;14024;52.226;5.200;2023-02-28T14:18:51;4.70;;;3.13;;
26319;SDS011;14024;52.226;5.200;2023-02-28T14:21:22;3.65;;;2.97;;
26319;SDS011;14024;52.226;5.200;2023-02-28T14:31:48;4.45;;;2.95;;
26319;SDS011;14024;52.226;5.200;2023-02-28T14:36:45;5.53;;;3.00;;
26319;SDS011;14024;52.226;5.200;2023-02-28T14:39:12;4.35;;;3.13;;
26319;SDS011;14024;52.226;5.200;2023-02-28T14:41:40;5.68;;;3.10;;
26319;SDS011;14024;52.226;5.200;2023-02-28T14:46:47;5.88;;;3.35;;
26319;SDS011;14024;52.226;5.200;2023-02-28T14:49:18;5.18;;;3.65;;
26319;SDS011;14024;52.226;5.200;2023-02-28T14:51:45;8.20;;;5.88;;
26319;SDS011;14024;52.226;5.200;2023-02-28T14:54:13;6.88;;;3.35;;
26319;SDS011;14024;52.226;5.200;2023-02-28T14:56:39;4.95;;;3.20;;
26319;SDS011;14024;52.226;5.200;2023-02-28T14:59:06;5.75;;;3.47;;
26319;SDS011;14024;52.226;5.200;2023-02-28T15:01:48;6.95;;;3.22;;
26319;SDS011;14024;52.226;5.200;2023-02-28T15:04:26;6.03;;;3.38;;
26319;SDS011;14024;52.226;5.200;2023-02-28T15:07:08;6.28;;;3.65;;
26319;SDS011;14024;52.226;5.200;2023-02-28T15:09:34;5.30;;;3.30;;
26319;SDS011;14024;52.226;5.200;2023-02-28T15:12:00;6.22;;;3.85;;
26319;SDS011;14024;52.226;5.200;2023-02-28T15:14:27;6.28;;;3.60;;
26319;SDS011;14024;52.226;5.200;2023-02-28T15:17:01;8.32;;;3.60;;
26319;SDS011;14024;52.226;5.200;2023-02-28T15:19:28;6.43;;;3.53;;
26319;SDS011;14024;52.226;5.200;2023-02-28T15:21:57;6.75;;;3.55;;
26319;SDS011;14024;52.226;5.200;2023-02-28T15:24:30;6.15;;;3.90;;
26319;SDS011;14024;52.226;5.200;2023-02-28T15:26:58;6.03;;;3.65;;
26319;SDS011;14024;52.226;5.200;2023-02-28T15:29:25;5.50;;;3.80;;
26319;SDS011;14024;52.226;5.200;2023-02-28T15:32:03;7.10;;;3.28;;
26319;SDS011;14024;52.226;5.200;2023-02-28T15:36:55;5.60;;;3.55;;
26319;SDS011;14024;52.226;5.200;2023-02-28T15:39:25;6.50;;;3.65;;
26319;SDS011;14024;52.226;5.200;2023-02-28T15:42:40;8.57;;;3.35;;
26319;SDS011;14024;52.226;5.200;2023-02-28T15:44:41;6.63;;;3.67;;
26319;SDS011;14024;52.226;5.200;2023-02-28T15:47:17;6.28;;;3.83;;
26319;SDS011;14024;52.226;5.200;2023-02-28T15:49:47;10.60;;;4.63;;
26319;SDS011;14024;52.226;5.200;2023-02-28T15:52:19;6.57;;;4.05;;
26319;SDS011;14024;52.226;5.200;2023-02-28T15:54:45;5.68;;;3.88;;
26319;SDS011;14024;52.226;5.200;2023-02-28T15:57:17;10.07;;;5.05;;
26319;SDS011;14024;52.226;5.200;2023-02-28T15:59:48;9.23;;;4.10;;
26319;SDS011;14024;52.226;5.200;2023-02-28T16:07:21;6.80;;;4.00;;
26319;SDS011;14024;52.226;5.200;2023-02-28T16:09:47;5.07;;;3.65;;
26319;SDS011;14024;52.226;5.200;2023-02-28T16:12:13;5.07;;;3.88;;
26319;SDS011;14024;52.226;5.200;2023-02-28T16:14:39;5.60;;;4.00;;
26319;SDS011;14024;52.226;5.200;2023-02-28T16:17:07;5.97;;;3.83;;
26319;SDS011;14024;52.226;5.200;2023-02-28T16:19:37;5.97;;;3.97;;
26319;SDS011;14024;52.226;5.200;2023-02-28T16:22:03;6.30;;;4.00;;
26319;SDS011;14024;52.226;5.200;2023-02-28T16:24:29;8.82;;;4.35;;
26319;SDS011;14024;52.226;5.200;2023-02-28T16:26:55;6.82;;;3.80;;
26319;SDS011;14024;52.226;5.200;2023-02-28T16:29:26;6.35;;;4.45;;
26319;SDS011;14024;52.226;5.200;2023-02-28T16:31:53;6.78;;;4.20;;
26319;SDS011;14024;52.226;5.200;2023-02-28T16:34:19;9.35;;;4.97;;
26319;SDS011;14024;52.226;5.200;2023-02-28T16:36:48;7.57;;;4.20;;
26319;SDS011;14024;52.226;5.200;2023-02-28T16:39:15;8.57;;;3.90;;
26319;SDS011;14024;52.226;5.200;2023-02-28T16:41:44;6.15;;;4.43;;
26319;SDS011;14024;52.226;5.200;2023-02-28T16:44:20;5.65;;;3.85;;
26319;SDS011;14024;52.226;5.200;2023-02-28T16:46:46;11.68;;;5.55;;
26319;SDS011;14024;52.226;5.200;2023-02-28T16:49:13;7.40;;;4.15;;
26319;SDS011;14024;52.226;5.200;2023-02-28T16:51:39;9.75;;;4.70;;
26319;SDS011;14024;52.226;5.200;2023-02-28T16:54:05;6.78;;;4.80;;
26319;SDS011;14024;52.226;5.200;2023-02-28T16:56:31;9.82;;;4.80;;
26319;SDS011;14024;52.226;5.200;2023-02-28T16:58:59;14.68;;;4.43;;
26319;SDS011;14024;52.226;5.200;2023-02-28T17:01:26;7.07;;;4.05;;
26319;SDS011;14024;52.226;5.200;2023-02-28T17:03:52;5.55;;;3.80;;
26319;SDS011;14024;52.226;5.200;2023-02-28T17:06:19;8.68;;;4.07;;
26319;SDS011;14024;52.226;5.200;2023-02-28T17:08:47;10.43;;;4.57;;
26319;SDS011;14024;52.226;5.200;2023-02-28T17:11:13;6.63;;;4.82;;
26319;SDS011;14024;52.226;5.200;2023-02-28T17:13:39;6.68;;;4.55;;
26319;SDS011;14024;52.226;5.200;2023-02-28T17:16:05;8.23;;;4.68;;
26319;SDS011;14024;52.226;5.200;2023-02-28T17:18:31;7.85;;;4.70;;
26319;SDS011;14024;52.226;5.200;2023-02-28T17:21:00;6.70;;;4.32;;
26319;SDS011;14024;52.226;5.200;2023-02-28T17:23:26;8.70;;;5.00;;